PWSweather.com
Personal Weather Stations
Station Observations
ITROMSHA6
HarstadNO 9407

HarstadNO 9407

Lat: 68.7814767, Lon: 16.5297091

Elevation: 145

Station Type: Davis Vantage Pro2

High Low Average
Temperature 54.0°F12.2°C 37.7°F3.2°C 47.1°F8.4°C
Dew Point 41.4°F5.2°C 35.8°F2.1°C 38.6°F3.7°C
Winds 13.0 mph 20.9 kmh Calm Calm 4.0 mph S6.4 kmh S
Wind Gusts 20.0 mph32.2 kmh -- 2.0 mph3.2 kmh
Humidity 94% 55% 74%
Pressure 29.50 in999.0 mb 29.21 in989.2 mb -
Precipitation 0.01 in0.3 mm - -
Hour Temp Dew Point Humidity Winds Wind Gusts Pressure Precip Precip Rate Daily Precip Total
12:00 AM 37.9°F3.3°C 36.1°F2.3°C 93% 3.0 mph SW4.8 kmh SW -- 29.50 in999.0 mb 0.00 in0.0 mm 0.00 in0.0 mm 0.00 in0.0 mm
12:05 AM 37.9°F3.3°C 36.1°F2.3°C 93% 5.0 mph SW8.0 kmh SW 5.0 mph8.0 kmh 29.49 in998.6 mb 0.00 in0.0 mm 0.00 in0.0 mm 0.00 in0.0 mm
12:10 AM 37.9°F3.3°C 36.1°F2.3°C 93% 4.0 mph SW6.4 kmh SW -- 29.49 in998.6 mb 0.00 in0.0 mm 0.00 in0.0 mm 0.00 in0.0 mm
12:15 AM 37.7°F3.2°C 36.0°F2.2°C 93% 4.0 mph SW6.4 kmh SW -- 29.48 in998.3 mb 0.00 in0.0 mm 0.00 in0.0 mm 0.00 in0.0 mm
12:20 AM 37.9°F3.3°C 36.1°F2.3°C 93% 3.0 mph SW4.8 kmh SW -- 29.48 in998.3 mb 0.00 in0.0 mm 0.00 in0.0 mm 0.00 in0.0 mm
12:25 AM 38.2°F3.4°C 36.3°F2.4°C 93% 1.0 mph SW1.6 kmh SW -- 29.48 in998.3 mb 0.00 in0.0 mm 0.00 in0.0 mm 0.00 in0.0 mm
12:30 AM 38.1°F3.4°C 36.3°F2.4°C 93% 5.0 mph SW8.0 kmh SW 4.0 mph6.4 kmh 29.47 in998.0 mb 0.00 in0.0 mm 0.00 in0.0 mm 0.00 in0.0 mm
12:35 AM 38.2°F3.4°C 36.3°F2.4°C 93% 3.0 mph SW4.8 kmh SW -- 29.47 in998.0 mb 0.00 in0.0 mm 0.00 in0.0 mm 0.00 in0.0 mm
12:40 AM 37.9°F3.3°C 36.1°F2.3°C 93% 3.0 mph WSW4.8 kmh WSW -- 29.46 in997.6 mb 0.00 in0.0 mm 0.00 in0.0 mm 0.00 in0.0 mm
12:45 AM 37.9°F3.3°C 36.1°F2.3°C 93% 4.0 mph SW6.4 kmh SW -- 29.46 in997.6 mb 0.00 in0.0 mm 0.00 in0.0 mm 0.00 in0.0 mm
12:50 AM 38.0°F3.3°C 36.1°F2.3°C 93% 3.0 mph WSW4.8 kmh WSW -- 29.46 in997.6 mb 0.00 in0.0 mm 0.00 in0.0 mm 0.00 in0.0 mm
12:55 AM 38.7°F3.7°C 37.0°F2.8°C 94% 4.0 mph SW6.4 kmh SW 5.0 mph8.0 kmh 29.45 in997.3 mb 0.00 in0.0 mm 0.00 in0.0 mm 0.00 in0.0 mm
01:00 AM 38.7°F3.7°C 36.9°F2.7°C 93% 4.0 mph WSW6.4 kmh WSW -- 29.45 in997.3 mb 0.00 in0.0 mm 0.00 in0.0 mm 0.00 in0.0 mm
01:05 AM 38.3°F3.5°C 36.1°F2.3°C 92% 3.0 mph SW4.8 kmh SW -- 29.45 in997.3 mb 0.00 in0.0 mm 0.00 in0.0 mm 0.00 in0.0 mm
01:10 AM 38.5°F3.6°C 36.7°F2.6°C 93% 3.0 mph SW4.8 kmh SW -- 29.44 in997.0 mb 0.00 in0.0 mm 0.00 in0.0 mm 0.00 in0.0 mm
01:15 AM 38.6°F3.7°C 36.9°F2.7°C 93% 5.0 mph WSW8.0 kmh WSW -- 29.44 in997.0 mb 0.00 in0.0 mm 0.00 in0.0 mm 0.00 in0.0 mm
01:20 AM 38.7°F3.7°C 36.9°F2.7°C 93% 4.0 mph SW6.4 kmh SW 6.0 mph9.7 kmh 29.43 in996.6 mb 0.00 in0.0 mm 0.00 in0.0 mm 0.00 in0.0 mm
01:25 AM 38.9°F3.8°C 37.0°F2.8°C 93% 4.0 mph SW6.4 kmh SW -- 29.43 in996.6 mb 0.00 in0.0 mm 0.00 in0.0 mm 0.00 in0.0 mm
01:30 AM 38.3°F3.5°C 36.1°F2.3°C 92% 4.0 mph WSW6.4 kmh WSW -- 29.43 in996.6 mb 0.00 in0.0 mm 0.00 in0.0 mm 0.00 in0.0 mm
01:35 AM 38.2°F3.4°C 36.0°F2.2°C 92% 4.0 mph SW6.4 kmh SW -- 29.42 in996.3 mb 0.00 in0.0 mm 0.00 in0.0 mm 0.00 in0.0 mm
01:40 AM 38.4°F3.6°C 36.3°F2.4°C 92% 5.0 mph SW8.0 kmh SW -- 29.42 in996.3 mb 0.00 in0.0 mm 0.00 in0.0 mm 0.00 in0.0 mm
01:45 AM 38.6°F3.7°C 36.9°F2.7°C 93% 5.0 mph WSW8.0 kmh WSW 6.0 mph9.7 kmh 29.41 in995.9 mb 0.00 in0.0 mm 0.00 in0.0 mm 0.00 in0.0 mm
01:50 AM 39.5°F4.2°C 37.8°F3.2°C 93% 5.0 mph WSW8.0 kmh WSW -- 29.41 in995.9 mb 0.00 in0.0 mm 0.00 in0.0 mm 0.00 in0.0 mm
01:55 AM 39.4°F4.1°C 37.0°F2.8°C 91% 6.0 mph WSW9.7 kmh WSW -- 29.41 in995.9 mb 0.00 in0.0 mm 0.00 in0.0 mm 0.00 in0.0 mm
02:00 AM 39.6°F4.2°C 37.2°F2.9°C 91% 5.0 mph WSW8.0 kmh WSW -- 29.41 in995.9 mb 0.00 in0.0 mm 0.00 in0.0 mm 0.00 in0.0 mm
02:05 AM 39.3°F4.1°C 37.0°F2.8°C 91% 4.0 mph SW6.4 kmh SW -- 29.40 in995.6 mb 0.00 in0.0 mm 0.00 in0.0 mm 0.00 in0.0 mm
02:10 AM 38.9°F3.8°C 36.5°F2.5°C 91% 4.0 mph WSW6.4 kmh WSW 6.0 mph9.7 kmh 29.40 in995.6 mb 0.00 in0.0 mm 0.00 in0.0 mm 0.00 in0.0 mm
02:15 AM 38.7°F3.7°C 36.3°F2.4°C 91% 4.0 mph WSW6.4 kmh WSW -- 29.39 in995.3 mb 0.00 in0.0 mm 0.00 in0.0 mm 0.00 in0.0 mm
02:20 AM 39.4°F4.1°C 37.2°F2.9°C 92% 3.0 mph WSW4.8 kmh WSW -- 29.39 in995.3 mb 0.00 in0.0 mm 0.00 in0.0 mm 0.00 in0.0 mm
02:25 AM 39.3°F4.1°C 36.7°F2.6°C 90% 4.0 mph WSW6.4 kmh WSW -- 29.39 in995.3 mb 0.00 in0.0 mm 0.00 in0.0 mm 0.00 in0.0 mm
02:30 AM 39.2°F4.0°C 36.5°F2.5°C 90% 5.0 mph SW8.0 kmh SW -- 29.39 in995.3 mb 0.00 in0.0 mm 0.00 in0.0 mm 0.00 in0.0 mm
02:35 AM 38.7°F3.7°C 36.0°F2.2°C 90% 3.0 mph SW4.8 kmh SW 6.0 mph9.7 kmh 29.38 in994.9 mb 0.00 in0.0 mm 0.00 in0.0 mm 0.00 in0.0 mm
02:40 AM 38.2°F3.4°C 35.8°F2.1°C 91% 4.0 mph SW6.4 kmh SW -- 29.38 in994.9 mb 0.00 in0.0 mm 0.00 in0.0 mm 0.00 in0.0 mm
02:45 AM 38.5°F3.6°C 36.3°F2.4°C 92% 5.0 mph SW8.0 kmh SW -- 29.38 in994.9 mb 0.00 in0.0 mm 0.00 in0.0 mm 0.00 in0.0 mm
02:50 AM 38.8°F3.8°C 36.7°F2.6°C 92% 6.0 mph SW9.7 kmh SW -- 29.37 in994.6 mb 0.00 in0.0 mm 0.00 in0.0 mm 0.00 in0.0 mm
02:55 AM 38.6°F3.7°C 36.3°F2.4°C 91% 4.0 mph SW6.4 kmh SW -- 29.37 in994.6 mb 0.00 in0.0 mm 0.00 in0.0 mm 0.00 in0.0 mm
03:00 AM 38.8°F3.8°C 36.5°F2.5°C 91% 6.0 mph SW9.7 kmh SW 7.0 mph11.3 kmh 29.36 in994.2 mb 0.00 in0.0 mm 0.00 in0.0 mm 0.00 in0.0 mm
03:05 AM 38.8°F3.8°C 36.5°F2.5°C 91% 5.0 mph WSW8.0 kmh WSW -- 29.36 in994.2 mb 0.00 in0.0 mm 0.00 in0.0 mm 0.00 in0.0 mm
03:10 AM 38.7°F3.7°C 36.5°F2.5°C 92% 4.0 mph SW6.4 kmh SW -- 29.36 in994.2 mb 0.00 in0.0 mm 0.00 in0.0 mm 0.00 in0.0 mm
03:15 AM 39.4°F4.1°C 37.0°F2.8°C 91% 3.0 mph WSW4.8 kmh WSW -- 29.36 in994.2 mb 0.00 in0.0 mm 0.00 in0.0 mm 0.00 in0.0 mm
03:20 AM 39.1°F3.9°C 36.3°F2.4°C 90% 3.0 mph WSW4.8 kmh WSW -- 29.35 in993.9 mb 0.00 in0.0 mm 0.00 in0.0 mm 0.00 in0.0 mm
03:25 AM 39.0°F3.9°C 36.3°F2.4°C 90% 6.0 mph WSW9.7 kmh WSW 7.0 mph11.3 kmh 29.35 in993.9 mb 0.00 in0.0 mm 0.00 in0.0 mm 0.00 in0.0 mm
03:30 AM 39.6°F4.2°C 37.2°F2.9°C 91% 3.0 mph WSW4.8 kmh WSW -- 29.35 in993.9 mb 0.00 in0.0 mm 0.00 in0.0 mm 0.00 in0.0 mm
03:35 AM 39.9°F4.4°C 37.2°F2.9°C 90% 5.0 mph SW8.0 kmh SW -- 29.34 in993.6 mb 0.00 in0.0 mm 0.00 in0.0 mm 0.00 in0.0 mm
03:40 AM 39.8°F4.3°C 36.7°F2.6°C 89% 6.0 mph WSW9.7 kmh WSW -- 29.34 in993.6 mb 0.00 in0.0 mm 0.00 in0.0 mm 0.00 in0.0 mm
03:45 AM 40.1°F4.5°C 37.0°F2.8°C 89% 6.0 mph WSW9.7 kmh WSW -- 29.34 in993.6 mb 0.00 in0.0 mm 0.00 in0.0 mm 0.00 in0.0 mm
03:50 AM 40.0°F4.4°C 36.7°F2.6°C 88% 5.0 mph WSW8.0 kmh WSW 7.0 mph11.3 kmh 29.34 in993.6 mb 0.00 in0.0 mm 0.00 in0.0 mm 0.00 in0.0 mm
03:55 AM 39.8°F4.3°C 36.7°F2.6°C 89% 3.0 mph WSW4.8 kmh WSW -- 29.34 in993.6 mb 0.00 in0.0 mm 0.00 in0.0 mm 0.00 in0.0 mm
04:00 AM 39.6°F4.2°C 36.7°F2.6°C 89% 4.0 mph W6.4 kmh W -- 29.33 in993.2 mb 0.00 in0.0 mm 0.00 in0.0 mm 0.00 in0.0 mm
04:05 AM 39.9°F4.4°C 37.2°F2.9°C 90% 5.0 mph WSW8.0 kmh WSW -- 29.33 in993.2 mb 0.00 in0.0 mm 0.00 in0.0 mm 0.00 in0.0 mm
04:10 AM 40.0°F4.4°C 37.2°F2.9°C 90% 5.0 mph WSW8.0 kmh WSW -- 29.32 in992.9 mb 0.00 in0.0 mm 0.00 in0.0 mm 0.00 in0.0 mm
04:15 AM 40.4°F4.7°C 37.8°F3.2°C 90% 4.0 mph WSW6.4 kmh WSW 5.0 mph8.0 kmh 29.32 in992.9 mb 0.00 in0.0 mm 0.00 in0.0 mm 0.00 in0.0 mm
04:20 AM 41.0°F5.0°C 38.3°F3.5°C 90% 2.0 mph SW3.2 kmh SW -- 29.31 in992.6 mb 0.00 in0.0 mm 0.00 in0.0 mm 0.00 in0.0 mm
04:25 AM 41.6°F5.3°C 38.3°F3.5°C 88% 4.0 mph WSW6.4 kmh WSW -- 29.31 in992.6 mb 0.00 in0.0 mm 0.00 in0.0 mm 0.00 in0.0 mm
04:30 AM 41.8°F5.4°C 38.5°F3.6°C 88% 4.0 mph WSW6.4 kmh WSW -- 29.31 in992.6 mb 0.00 in0.0 mm 0.00 in0.0 mm 0.00 in0.0 mm
04:35 AM 41.6°F5.3°C 37.6°F3.1°C 86% 4.0 mph WSW6.4 kmh WSW -- 29.31 in992.6 mb 0.00 in0.0 mm 0.00 in0.0 mm 0.00 in0.0 mm
04:40 AM 40.8°F4.9°C 37.2°F2.9°C 87% 5.0 mph SW8.0 kmh SW 6.0 mph9.7 kmh 29.30 in992.2 mb 0.00 in0.0 mm 0.00 in0.0 mm 0.00 in0.0 mm
04:45 AM 40.6°F4.8°C 37.4°F3.0°C 88% 5.0 mph WSW8.0 kmh WSW -- 29.30 in992.2 mb 0.00 in0.0 mm 0.00 in0.0 mm 0.00 in0.0 mm
04:50 AM 40.1°F4.5°C 37.0°F2.8°C 89% 5.0 mph WSW8.0 kmh WSW -- 29.30 in992.2 mb 0.00 in0.0 mm 0.00 in0.0 mm 0.00 in0.0 mm
04:55 AM 40.7°F4.8°C 37.6°F3.1°C 89% 4.0 mph WSW6.4 kmh WSW -- 29.30 in992.2 mb 0.00 in0.0 mm 0.00 in0.0 mm 0.00 in0.0 mm
05:00 AM 41.0°F5.0°C 37.9°F3.3°C 89% 6.0 mph WSW9.7 kmh WSW -- 29.30 in992.2 mb 0.00 in0.0 mm 0.00 in0.0 mm 0.00 in0.0 mm
05:05 AM 41.0°F5.0°C 37.4°F3.0°C 87% 5.0 mph SW8.0 kmh SW 7.0 mph11.3 kmh 29.29 in991.9 mb 0.00 in0.0 mm 0.00 in0.0 mm 0.00 in0.0 mm
05:10 AM 41.1°F5.1°C 37.9°F3.3°C 88% 5.0 mph SW8.0 kmh SW -- 29.29 in991.9 mb 0.00 in0.0 mm 0.00 in0.0 mm 0.00 in0.0 mm
05:15 AM 41.5°F5.3°C 37.9°F3.3°C 87% 4.0 mph SW6.4 kmh SW -- 29.29 in991.9 mb 0.00 in0.0 mm 0.00 in0.0 mm 0.00 in0.0 mm
05:20 AM 41.5°F5.3°C 37.9°F3.3°C 87% 5.0 mph WSW8.0 kmh WSW -- 29.29 in991.9 mb 0.00 in0.0 mm 0.00 in0.0 mm 0.00 in0.0 mm
05:25 AM 41.5°F5.3°C 37.6°F3.1°C 86% 4.0 mph SW6.4 kmh SW -- 29.28 in991.5 mb 0.00 in0.0 mm 0.00 in0.0 mm 0.00 in0.0 mm
05:30 AM 41.8°F5.4°C 37.8°F3.2°C 86% 4.0 mph WSW6.4 kmh WSW 7.0 mph11.3 kmh 29.28 in991.5 mb 0.00 in0.0 mm 0.00 in0.0 mm 0.00 in0.0 mm
05:35 AM 42.8°F6.0°C 38.3°F3.5°C 84% 3.0 mph WSW4.8 kmh WSW -- 29.28 in991.5 mb 0.00 in0.0 mm 0.00 in0.0 mm 0.00 in0.0 mm
05:40 AM 42.9°F6.1°C 37.9°F3.3°C 82% 3.0 mph WSW4.8 kmh WSW -- 29.28 in991.5 mb 0.00 in0.0 mm 0.00 in0.0 mm 0.00 in0.0 mm
05:45 AM 42.9°F6.1°C 37.6°F3.1°C 81% 4.0 mph SW6.4 kmh SW -- 29.27 in991.2 mb 0.00 in0.0 mm 0.00 in0.0 mm 0.00 in0.0 mm
05:50 AM 42.2°F5.7°C 36.9°F2.7°C 81% 4.0 mph WSW6.4 kmh WSW -- 29.27 in991.2 mb 0.00 in0.0 mm 0.00 in0.0 mm 0.00 in0.0 mm
05:55 AM 41.9°F5.5°C 37.0°F2.8°C 83% 3.0 mph SW4.8 kmh SW 6.0 mph9.7 kmh 29.27 in991.2 mb 0.00 in0.0 mm 0.00 in0.0 mm 0.00 in0.0 mm
06:00 AM 42.5°F5.8°C 37.6°F3.1°C 83% 1.0 mph SW1.6 kmh SW -- 29.27 in991.2 mb 0.00 in0.0 mm 0.00 in0.0 mm 0.00 in0.0 mm
06:05 AM 43.2°F6.2°C 37.8°F3.2°C 81% 3.0 mph SW4.8 kmh SW -- 29.27 in991.2 mb 0.00 in0.0 mm 0.00 in0.0 mm 0.00 in0.0 mm
06:10 AM 44.3°F6.8°C 38.1°F3.4°C 79% 2.0 mph SW3.2 kmh SW -- 29.27 in991.2 mb 0.00 in0.0 mm 0.00 in0.0 mm 0.00 in0.0 mm
06:15 AM 44.8°F7.1°C 38.3°F3.5°C 78% 3.0 mph WSW4.8 kmh WSW -- 29.26 in990.9 mb 0.00 in0.0 mm 0.00 in0.0 mm 0.00 in0.0 mm
06:20 AM 44.4°F6.9°C 38.3°F3.5°C 79% 2.0 mph WSW3.2 kmh WSW 4.0 mph6.4 kmh 29.26 in990.9 mb 0.00 in0.0 mm 0.00 in0.0 mm 0.00 in0.0 mm
06:25 AM 44.1°F6.7°C 38.3°F3.5°C 80% 2.0 mph SW3.2 kmh SW -- 29.26 in990.9 mb 0.00 in0.0 mm 0.00 in0.0 mm 0.00 in0.0 mm
06:30 AM 44.1°F6.7°C 38.3°F3.5°C 80% 2.0 mph WSW3.2 kmh WSW -- 29.26 in990.9 mb 0.00 in0.0 mm 0.00 in0.0 mm 0.00 in0.0 mm
06:35 AM 44.8°F7.1°C 38.7°F3.7°C 79% 1.0 mph W1.6 kmh W -- 29.26 in990.9 mb 0.00 in0.0 mm 0.00 in0.0 mm 0.00 in0.0 mm
06:40 AM 45.6°F7.6°C 38.8°F3.8°C 77% 1.0 mph W1.6 kmh W -- 29.26 in990.9 mb 0.00 in0.0 mm 0.00 in0.0 mm 0.00 in0.0 mm
06:45 AM 45.9°F7.7°C 38.7°F3.7°C 76% 3.0 mph WSW4.8 kmh WSW 5.0 mph8.0 kmh 29.25 in990.5 mb 0.00 in0.0 mm 0.00 in0.0 mm 0.00 in0.0 mm
06:50 AM 46.0°F7.8°C 38.8°F3.8°C 76% 4.0 mph W6.4 kmh W -- 29.25 in990.5 mb 0.00 in0.0 mm 0.00 in0.0 mm 0.00 in0.0 mm
06:55 AM 46.3°F7.9°C 38.7°F3.7°C 75% 3.0 mph WSW4.8 kmh WSW -- 29.25 in990.5 mb 0.00 in0.0 mm 0.00 in0.0 mm 0.00 in0.0 mm
07:00 AM 46.3°F7.9°C 38.7°F3.7°C 75% 2.0 mph WSW3.2 kmh WSW -- 29.25 in990.5 mb 0.00 in0.0 mm 0.00 in0.0 mm 0.00 in0.0 mm
07:05 AM 46.3°F7.9°C 39.0°F3.9°C 76% 2.0 mph WSW3.2 kmh WSW -- 29.25 in990.5 mb 0.00 in0.0 mm 0.00 in0.0 mm 0.00 in0.0 mm
07:10 AM 45.9°F7.7°C 39.0°F3.9°C 77% 3.0 mph WSW4.8 kmh WSW 4.0 mph6.4 kmh 29.25 in990.5 mb 0.00 in0.0 mm 0.00 in0.0 mm 0.00 in0.0 mm
07:15 AM 46.3°F7.9°C 39.0°F3.9°C 76% 3.0 mph SW4.8 kmh SW -- 29.25 in990.5 mb 0.00 in0.0 mm 0.00 in0.0 mm 0.00 in0.0 mm
07:20 AM 45.9°F7.7°C 39.4°F4.1°C 78% 3.0 mph SW4.8 kmh SW -- 29.25 in990.5 mb 0.00 in0.0 mm 0.00 in0.0 mm 0.00 in0.0 mm
07:25 AM 45.4°F7.4°C 39.6°F4.2°C 80% 2.0 mph W3.2 kmh W -- 29.24 in990.2 mb 0.00 in0.0 mm 0.00 in0.0 mm 0.00 in0.0 mm
07:30 AM 46.0°F7.8°C 39.6°F4.2°C 78% 3.0 mph W4.8 kmh W -- 29.24 in990.2 mb 0.00 in0.0 mm 0.00 in0.0 mm 0.00 in0.0 mm
07:35 AM 46.3°F7.9°C 39.4°F4.1°C 77% 3.0 mph W4.8 kmh W 3.0 mph4.8 kmh 29.24 in990.2 mb 0.00 in0.0 mm 0.00 in0.0 mm 0.00 in0.0 mm
07:40 AM 46.7°F8.2°C 39.2°F4.0°C 75% Calm Calm -- 29.24 in990.2 mb 0.00 in0.0 mm 0.00 in0.0 mm 0.00 in0.0 mm
07:45 AM 46.3°F7.9°C 39.4°F4.1°C 77% 2.0 mph WSW3.2 kmh WSW -- 29.24 in990.2 mb 0.00 in0.0 mm 0.00 in0.0 mm 0.00 in0.0 mm
07:50 AM 46.7°F8.2°C 39.6°F4.2°C 76% Calm Calm -- 29.24 in990.2 mb 0.00 in0.0 mm 0.00 in0.0 mm 0.00 in0.0 mm
07:55 AM 46.9°F8.3°C 39.4°F4.1°C 75% 2.0 mph E3.2 kmh E -- 29.24 in990.2 mb 0.00 in0.0 mm 0.00 in0.0 mm 0.00 in0.0 mm
08:00 AM 47.3°F8.5°C 39.0°F3.9°C 73% Calm Calm 8.0 mph12.9 kmh 29.23 in989.8 mb 0.00 in0.0 mm 0.00 in0.0 mm 0.00 in0.0 mm
08:05 AM 47.8°F8.8°C 39.2°F4.0°C 72% Calm Calm -- 29.23 in989.8 mb 0.00 in0.0 mm 0.00 in0.0 mm 0.00 in0.0 mm
08:10 AM 48.3°F9.1°C 39.4°F4.1°C 71% 2.0 mph SE3.2 kmh SE -- 29.23 in989.8 mb 0.00 in0.0 mm 0.00 in0.0 mm 0.00 in0.0 mm
08:15 AM 48.6°F9.2°C 39.2°F4.0°C 70% 4.0 mph NE6.4 kmh NE -- 29.23 in989.8 mb 0.00 in0.0 mm 0.00 in0.0 mm 0.00 in0.0 mm
08:20 AM 48.7°F9.3°C 39.0°F3.9°C 69% 7.0 mph NE11.3 kmh NE -- 29.23 in989.8 mb 0.00 in0.0 mm 0.00 in0.0 mm 0.00 in0.0 mm
08:25 AM 49.1°F9.5°C 39.0°F3.9°C 68% 5.0 mph NE8.0 kmh NE 8.0 mph12.9 kmh 29.23 in989.8 mb 0.00 in0.0 mm 0.00 in0.0 mm 0.00 in0.0 mm
08:30 AM 49.3°F9.6°C 38.8°F3.8°C 67% 3.0 mph ENE4.8 kmh ENE -- 29.23 in989.8 mb 0.00 in0.0 mm 0.00 in0.0 mm 0.00 in0.0 mm
08:35 AM 49.6°F9.8°C 39.2°F4.0°C 67% 7.0 mph NE11.3 kmh NE -- 29.23 in989.8 mb 0.00 in0.0 mm 0.00 in0.0 mm 0.00 in0.0 mm
08:40 AM 49.9°F9.9°C 39.4°F4.1°C 67% 5.0 mph NE8.0 kmh NE -- 29.23 in989.8 mb 0.00 in0.0 mm 0.00 in0.0 mm 0.00 in0.0 mm
08:45 AM 50.3°F10.2°C 39.4°F4.1°C 66% 7.0 mph NE11.3 kmh NE -- 29.23 in989.8 mb 0.00 in0.0 mm 0.00 in0.0 mm 0.00 in0.0 mm
08:50 AM 50.5°F10.3°C 38.8°F3.8°C 64% 8.0 mph ESE12.9 kmh ESE 19.0 mph30.6 kmh 29.23 in989.8 mb 0.00 in0.0 mm 0.00 in0.0 mm 0.00 in0.0 mm
08:55 AM 50.6°F10.3°C 38.8°F3.8°C 64% 3.0 mph NE4.8 kmh NE -- 29.23 in989.8 mb 0.00 in0.0 mm 0.00 in0.0 mm 0.00 in0.0 mm
09:00 AM 50.7°F10.4°C 39.0°F3.9°C 64% 6.0 mph N9.7 kmh N -- 29.22 in989.5 mb 0.00 in0.0 mm 0.00 in0.0 mm 0.00 in0.0 mm
09:05 AM 50.8°F10.4°C 38.1°F3.4°C 62% 4.0 mph NE6.4 kmh NE -- 29.22 in989.5 mb 0.00 in0.0 mm 0.00 in0.0 mm 0.00 in0.0 mm
09:10 AM 50.9°F10.5°C 38.3°F3.5°C 62% 6.0 mph NNE9.7 kmh NNE -- 29.22 in989.5 mb 0.00 in0.0 mm 0.00 in0.0 mm 0.00 in0.0 mm
09:15 AM 51.0°F10.6°C 38.5°F3.6°C 62% 5.0 mph ESE8.0 kmh ESE 14.0 mph22.5 kmh 29.22 in989.5 mb 0.00 in0.0 mm 0.00 in0.0 mm 0.00 in0.0 mm
09:20 AM 51.0°F10.6°C 38.8°F3.8°C 63% 2.0 mph E3.2 kmh E -- 29.22 in989.5 mb 0.00 in0.0 mm 0.00 in0.0 mm 0.00 in0.0 mm
09:25 AM 51.1°F10.6°C 38.5°F3.6°C 62% 2.0 mph NW3.2 kmh NW -- 29.22 in989.5 mb 0.00 in0.0 mm 0.00 in0.0 mm 0.00 in0.0 mm
09:30 AM 51.1°F10.6°C 38.5°F3.6°C 62% 7.0 mph ENE11.3 kmh ENE -- 29.22 in989.5 mb 0.00 in0.0 mm 0.00 in0.0 mm 0.00 in0.0 mm
09:35 AM 51.2°F10.7°C 38.7°F3.7°C 62% 4.0 mph N6.4 kmh N -- 29.22 in989.5 mb 0.00 in0.0 mm 0.00 in0.0 mm 0.00 in0.0 mm
09:40 AM 51.4°F10.8°C 38.8°F3.8°C 62% 2.0 mph SW3.2 kmh SW 15.0 mph24.1 kmh 29.22 in989.5 mb 0.00 in0.0 mm 0.00 in0.0 mm 0.00 in0.0 mm
09:45 AM 51.4°F10.8°C 38.5°F3.6°C 61% 3.0 mph E4.8 kmh E -- 29.22 in989.5 mb 0.00 in0.0 mm 0.00 in0.0 mm 0.00 in0.0 mm
09:50 AM 51.4°F10.8°C 37.9°F3.3°C 60% 4.0 mph NE6.4 kmh NE -- 29.22 in989.5 mb 0.00 in0.0 mm 0.00 in0.0 mm 0.00 in0.0 mm
09:55 AM 51.4°F10.8°C 37.9°F3.3°C 60% 11.0 mph SE17.7 kmh SE -- 29.21 in989.2 mb 0.00 in0.0 mm 0.00 in0.0 mm 0.00 in0.0 mm
10:00 AM 51.6°F10.9°C 38.7°F3.7°C 61% 6.0 mph NE9.7 kmh NE -- 29.21 in989.2 mb 0.00 in0.0 mm 0.00 in0.0 mm 0.00 in0.0 mm
10:05 AM 51.8°F11.0°C 38.3°F3.5°C 60% 7.0 mph NE11.3 kmh NE 15.0 mph24.1 kmh 29.22 in989.5 mb 0.00 in0.0 mm 0.00 in0.0 mm 0.00 in0.0 mm
10:10 AM 51.8°F11.0°C 38.3°F3.5°C 60% 2.0 mph ENE3.2 kmh ENE -- 29.21 in989.2 mb 0.00 in0.0 mm 0.00 in0.0 mm 0.00 in0.0 mm
10:15 AM 51.7°F10.9°C 38.1°F3.4°C 60% 3.0 mph N4.8 kmh N -- 29.21 in989.2 mb 0.00 in0.0 mm 0.00 in0.0 mm 0.00 in0.0 mm
10:20 AM 51.8°F11.0°C 38.8°F3.8°C 61% 2.0 mph NE3.2 kmh NE -- 29.21 in989.2 mb 0.00 in0.0 mm 0.00 in0.0 mm 0.00 in0.0 mm
10:25 AM 51.8°F11.0°C 38.8°F3.8°C 61% 3.0 mph NE4.8 kmh NE -- 29.22 in989.5 mb 0.00 in0.0 mm 0.00 in0.0 mm 0.00 in0.0 mm
10:30 AM 51.8°F11.0°C 38.8°F3.8°C 61% 5.0 mph SW8.0 kmh SW 17.0 mph27.4 kmh 29.22 in989.5 mb 0.00 in0.0 mm 0.00 in0.0 mm 0.00 in0.0 mm
10:35 AM 52.0°F11.1°C 38.5°F3.6°C 60% 2.0 mph NE3.2 kmh NE -- 29.22 in989.5 mb 0.00 in0.0 mm 0.00 in0.0 mm 0.00 in0.0 mm
10:40 AM 52.1°F11.2°C 38.3°F3.5°C 59% 1.0 mph WNW1.6 kmh WNW -- 29.22 in989.5 mb 0.00 in0.0 mm 0.00 in0.0 mm 0.00 in0.0 mm
10:45 AM 52.1°F11.2°C 38.3°F3.5°C 59% 10.0 mph SSE16.1 kmh SSE -- 29.22 in989.5 mb 0.01 in0.3 mm 0.12 in3.0 mm 0.01 in0.3 mm
10:50 AM 52.1°F11.2°C 38.3°F3.5°C 59% 4.0 mph ENE6.4 kmh ENE -- 29.22 in989.5 mb 0.01 in0.3 mm 0.00 in0.0 mm 0.01 in0.3 mm
10:55 AM 52.2°F11.2°C 38.3°F3.5°C 59% 5.0 mph NE8.0 kmh NE 18.0 mph29.0 kmh 29.22 in989.5 mb 0.01 in0.3 mm 0.00 in0.0 mm 0.01 in0.3 mm
11:00 AM 52.1°F11.2°C 37.8°F3.2°C 58% 5.0 mph NE8.0 kmh NE -- 29.22 in989.5 mb 0.01 in0.3 mm 0.00 in0.0 mm 0.01 in0.3 mm
11:05 AM 52.1°F11.2°C 37.8°F3.2°C 58% 4.0 mph E6.4 kmh E -- 29.22 in989.5 mb 0.01 in0.3 mm 0.00 in0.0 mm 0.01 in0.3 mm
11:10 AM 51.9°F11.1°C 37.6°F3.1°C 58% 9.0 mph NE14.5 kmh NE -- 29.22 in989.5 mb 0.01 in0.3 mm 0.00 in0.0 mm 0.01 in0.3 mm
11:15 AM 51.9°F11.1°C 38.1°F3.4°C 59% 5.0 mph NNE8.0 kmh NNE -- 29.22 in989.5 mb 0.01 in0.3 mm 0.00 in0.0 mm 0.01 in0.3 mm
11:20 AM 52.0°F11.1°C 37.6°F3.1°C 58% 13.0 mph NE20.9 kmh NE 14.0 mph22.5 kmh 29.22 in989.5 mb 0.01 in0.3 mm 0.00 in0.0 mm 0.01 in0.3 mm
11:25 AM 52.2°F11.2°C 37.8°F3.2°C 58% 5.0 mph ENE8.0 kmh ENE -- 29.22 in989.5 mb 0.01 in0.3 mm 0.00 in0.0 mm 0.01 in0.3 mm
11:30 AM 52.3°F11.3°C 37.6°F3.1°C 57% 3.0 mph ENE4.8 kmh ENE -- 29.22 in989.5 mb 0.01 in0.3 mm 0.00 in0.0 mm 0.01 in0.3 mm
11:35 AM 52.5°F11.4°C 38.1°F3.4°C 58% 5.0 mph N8.0 kmh N -- 29.22 in989.5 mb 0.01 in0.3 mm 0.00 in0.0 mm 0.01 in0.3 mm
11:40 AM 52.6°F11.4°C 38.1°F3.4°C 58% 8.0 mph ENE12.9 kmh ENE -- 29.22 in989.5 mb 0.01 in0.3 mm 0.00 in0.0 mm 0.01 in0.3 mm
11:45 AM 52.5°F11.4°C 38.1°F3.4°C 58% 7.0 mph NE11.3 kmh NE 14.0 mph22.5 kmh 29.22 in989.5 mb 0.00 in0.0 mm 0.00 in0.0 mm 0.01 in0.3 mm
11:50 AM 52.7°F11.5°C 38.3°F3.5°C 58% 5.0 mph NE8.0 kmh NE -- 29.22 in989.5 mb 0.00 in0.0 mm 0.00 in0.0 mm 0.01 in0.3 mm
11:55 AM 52.8°F11.6°C 38.1°F3.4°C 57% 12.0 mph E19.3 kmh E -- 29.23 in989.8 mb 0.00 in0.0 mm 0.00 in0.0 mm 0.01 in0.3 mm
12:00 PM 52.8°F11.6°C 38.5°F3.6°C 58% 11.0 mph ENE17.7 kmh ENE -- 29.22 in989.5 mb 0.00 in0.0 mm 0.00 in0.0 mm 0.01 in0.3 mm
12:05 PM 53.0°F11.7°C 38.7°F3.7°C 58% 12.0 mph ENE19.3 kmh ENE -- 29.23 in989.8 mb 0.00 in0.0 mm 0.00 in0.0 mm 0.01 in0.3 mm
12:10 PM 53.0°F11.7°C 38.3°F3.5°C 57% 8.0 mph E12.9 kmh E 17.0 mph27.4 kmh 29.23 in989.8 mb 0.00 in0.0 mm 0.00 in0.0 mm 0.01 in0.3 mm
12:15 PM 53.2°F11.8°C 38.5°F3.6°C 57% 5.0 mph NE8.0 kmh NE -- 29.23 in989.8 mb 0.00 in0.0 mm 0.00 in0.0 mm 0.01 in0.3 mm
12:20 PM 53.2°F11.8°C 38.8°F3.8°C 58% 5.0 mph NE8.0 kmh NE -- 29.23 in989.8 mb 0.00 in0.0 mm 0.00 in0.0 mm 0.01 in0.3 mm
12:25 PM 53.0°F11.7°C 38.3°F3.5°C 57% 5.0 mph SW8.0 kmh SW -- 29.23 in989.8 mb 0.00 in0.0 mm 0.00 in0.0 mm 0.01 in0.3 mm
12:30 PM 53.0°F11.7°C 38.7°F3.7°C 58% 7.0 mph NE11.3 kmh NE -- 29.23 in989.8 mb 0.00 in0.0 mm 0.00 in0.0 mm 0.01 in0.3 mm
12:35 PM 52.9°F11.6°C 38.1°F3.4°C 57% 6.0 mph E9.7 kmh E 19.0 mph30.6 kmh 29.23 in989.8 mb 0.00 in0.0 mm 0.00 in0.0 mm 0.01 in0.3 mm
12:40 PM 52.8°F11.6°C 38.5°F3.6°C 58% 3.0 mph ENE4.8 kmh ENE -- 29.23 in989.8 mb 0.00 in0.0 mm 0.00 in0.0 mm 0.01 in0.3 mm
12:45 PM 53.0°F11.7°C 38.7°F3.7°C 58% 8.0 mph ENE12.9 kmh ENE -- 29.23 in989.8 mb 0.00 in0.0 mm 0.00 in0.0 mm 0.01 in0.3 mm
12:50 PM 53.1°F11.7°C 38.3°F3.5°C 57% 8.0 mph ESE12.9 kmh ESE -- 29.23 in989.8 mb 0.00 in0.0 mm 0.00 in0.0 mm 0.01 in0.3 mm
12:55 PM 53.3°F11.8°C 38.5°F3.6°C 57% 3.0 mph NE4.8 kmh NE -- 29.23 in989.8 mb 0.00 in0.0 mm 0.00 in0.0 mm 0.01 in0.3 mm
01:00 PM 53.5°F11.9°C 38.1°F3.4°C 56% 3.0 mph ENE4.8 kmh ENE 14.0 mph22.5 kmh 29.23 in989.8 mb 0.00 in0.0 mm 0.00 in0.0 mm 0.01 in0.3 mm
01:05 PM 53.4°F11.9°C 38.7°F3.7°C 57% 1.0 mph E1.6 kmh E -- 29.23 in989.8 mb 0.00 in0.0 mm 0.00 in0.0 mm 0.01 in0.3 mm
01:10 PM 53.3°F11.8°C 38.5°F3.6°C 57% 6.0 mph E9.7 kmh E -- 29.23 in989.8 mb 0.00 in0.0 mm 0.00 in0.0 mm 0.01 in0.3 mm
01:15 PM 53.4°F11.9°C 38.7°F3.7°C 57% 4.0 mph NNE6.4 kmh NNE -- 29.23 in989.8 mb 0.00 in0.0 mm 0.00 in0.0 mm 0.01 in0.3 mm
01:20 PM 53.5°F11.9°C 38.1°F3.4°C 56% 12.0 mph ENE19.3 kmh ENE -- 29.23 in989.8 mb 0.00 in0.0 mm 0.00 in0.0 mm 0.01 in0.3 mm
01:25 PM 53.7°F12.1°C 37.9°F3.3°C 55% 11.0 mph NE17.7 kmh NE 20.0 mph32.2 kmh 29.23 in989.8 mb 0.00 in0.0 mm 0.00 in0.0 mm 0.01 in0.3 mm
01:30 PM 53.6°F12.0°C 38.3°F3.5°C 56% 8.0 mph ENE12.9 kmh ENE -- 29.23 in989.8 mb 0.00 in0.0 mm 0.00 in0.0 mm 0.01 in0.3 mm
01:35 PM 53.3°F11.8°C 38.5°F3.6°C 57% 5.0 mph NE8.0 kmh NE -- 29.23 in989.8 mb 0.00 in0.0 mm 0.00 in0.0 mm 0.01 in0.3 mm
01:40 PM 53.2°F11.8°C 38.5°F3.6°C 57% 12.0 mph ENE19.3 kmh ENE -- 29.23 in989.8 mb 0.00 in0.0 mm 0.00 in0.0 mm 0.01 in0.3 mm
01:45 PM 53.1°F11.7°C 38.7°F3.7°C 58% 1.0 mph ENE1.6 kmh ENE -- 29.23 in989.8 mb 0.00 in0.0 mm 0.00 in0.0 mm 0.01 in0.3 mm
01:50 PM 53.2°F11.8°C 38.8°F3.8°C 58% 13.0 mph ENE20.9 kmh ENE 15.0 mph24.1 kmh 29.24 in990.2 mb 0.00 in0.0 mm 0.00 in0.0 mm 0.01 in0.3 mm
01:55 PM 53.3°F11.8°C 38.8°F3.8°C 58% 5.0 mph N8.0 kmh N -- 29.23 in989.8 mb 0.00 in0.0 mm 0.00 in0.0 mm 0.01 in0.3 mm
02:00 PM 53.5°F11.9°C 39.0°F3.9°C 58% 8.0 mph E12.9 kmh E -- 29.24 in990.2 mb 0.00 in0.0 mm 0.00 in0.0 mm 0.01 in0.3 mm
02:05 PM 53.8°F12.1°C 38.8°F3.8°C 57% 10.0 mph NE16.1 kmh NE -- 29.23 in989.8 mb 0.00 in0.0 mm 0.00 in0.0 mm 0.01 in0.3 mm
02:10 PM 54.0°F12.2°C 39.0°F3.9°C 57% 6.0 mph NE9.7 kmh NE -- 29.24 in990.2 mb 0.00 in0.0 mm 0.00 in0.0 mm 0.01 in0.3 mm
02:15 PM 53.9°F12.2°C 39.0°F3.9°C 57% 7.0 mph ENE11.3 kmh ENE 14.0 mph22.5 kmh 29.24 in990.2 mb 0.00 in0.0 mm 0.00 in0.0 mm 0.01 in0.3 mm
02:20 PM 53.9°F12.2°C 39.0°F3.9°C 57% 4.0 mph ENE6.4 kmh ENE -- 29.24 in990.2 mb 0.00 in0.0 mm 0.00 in0.0 mm 0.01 in0.3 mm
02:25 PM 53.7°F12.1°C 39.4°F4.1°C 58% 4.0 mph N6.4 kmh N -- 29.24 in990.2 mb 0.00 in0.0 mm 0.00 in0.0 mm 0.01 in0.3 mm
02:30 PM 53.7°F12.1°C 39.4°F4.1°C 58% 3.0 mph E4.8 kmh E -- 29.24 in990.2 mb 0.00 in0.0 mm 0.00 in0.0 mm 0.01 in0.3 mm
02:35 PM 53.7°F12.1°C 39.4°F4.1°C 58% 9.0 mph E14.5 kmh E -- 29.25 in990.5 mb 0.00 in0.0 mm 0.00 in0.0 mm 0.01 in0.3 mm
02:40 PM 53.7°F12.1°C 39.4°F4.1°C 58% 11.0 mph E17.7 kmh E 12.0 mph19.3 kmh 29.25 in990.5 mb 0.00 in0.0 mm 0.00 in0.0 mm 0.01 in0.3 mm
02:45 PM 53.5°F11.9°C 39.4°F4.1°C 59% 3.0 mph NE4.8 kmh NE -- 29.25 in990.5 mb 0.00 in0.0 mm 0.00 in0.0 mm 0.01 in0.3 mm
02:50 PM 53.4°F11.9°C 39.9°F4.4°C 60% 6.0 mph SE9.7 kmh SE -- 29.25 in990.5 mb 0.00 in0.0 mm 0.00 in0.0 mm 0.01 in0.3 mm
02:55 PM 53.4°F11.9°C 39.9°F4.4°C 60% 12.0 mph ESE19.3 kmh ESE -- 29.25 in990.5 mb 0.00 in0.0 mm 0.00 in0.0 mm 0.01 in0.3 mm
03:00 PM 53.4°F11.9°C 39.9°F4.4°C 60% 5.0 mph NNE8.0 kmh NNE -- 29.25 in990.5 mb 0.00 in0.0 mm 0.00 in0.0 mm 0.01 in0.3 mm
03:05 PM 53.3°F11.8°C 39.7°F4.3°C 60% 3.0 mph NNE4.8 kmh NNE 18.0 mph29.0 kmh 29.25 in990.5 mb 0.00 in0.0 mm 0.00 in0.0 mm 0.01 in0.3 mm
03:10 PM 53.4°F11.9°C 39.9°F4.4°C 60% 4.0 mph NW6.4 kmh NW -- 29.25 in990.5 mb 0.00 in0.0 mm 0.00 in0.0 mm 0.01 in0.3 mm
03:15 PM 53.5°F11.9°C 39.9°F4.4°C 60% 3.0 mph WSW4.8 kmh WSW -- 29.25 in990.5 mb 0.00 in0.0 mm 0.00 in0.0 mm 0.01 in0.3 mm
03:20 PM 53.4°F11.9°C 40.3°F4.6°C 61% 7.0 mph NE11.3 kmh NE -- 29.25 in990.5 mb 0.00 in0.0 mm 0.00 in0.0 mm 0.01 in0.3 mm
03:25 PM 53.3°F11.8°C 39.7°F4.3°C 60% 3.0 mph NE4.8 kmh NE -- 29.25 in990.5 mb 0.00 in0.0 mm 0.00 in0.0 mm 0.01 in0.3 mm
03:30 PM 53.4°F11.9°C 40.3°F4.6°C 61% 4.0 mph NE6.4 kmh NE 14.0 mph22.5 kmh 29.25 in990.5 mb 0.00 in0.0 mm 0.00 in0.0 mm 0.01 in0.3 mm
03:35 PM 53.4°F11.9°C 39.9°F4.4°C 60% 9.0 mph E14.5 kmh E -- 29.25 in990.5 mb 0.00 in0.0 mm 0.00 in0.0 mm 0.01 in0.3 mm
03:40 PM 53.4°F11.9°C 39.4°F4.1°C 59% 6.0 mph E9.7 kmh E -- 29.25 in990.5 mb 0.00 in0.0 mm 0.00 in0.0 mm 0.01 in0.3 mm
03:45 PM 53.4°F11.9°C 40.3°F4.6°C 61% 5.0 mph NE8.0 kmh NE -- 29.25 in990.5 mb 0.00 in0.0 mm 0.00 in0.0 mm 0.01 in0.3 mm
03:50 PM 53.3°F11.8°C 39.2°F4.0°C 59% 3.0 mph ENE4.8 kmh ENE -- 29.26 in990.9 mb 0.00 in0.0 mm 0.00 in0.0 mm 0.01 in0.3 mm
03:55 PM 53.2°F11.8°C 40.1°F4.5°C 61% 6.0 mph ESE9.7 kmh ESE 13.0 mph20.9 kmh 29.25 in990.5 mb 0.00 in0.0 mm 0.00 in0.0 mm 0.01 in0.3 mm
04:00 PM 53.2°F11.8°C 40.1°F4.5°C 61% 10.0 mph NE16.1 kmh NE -- 29.25 in990.5 mb 0.00 in0.0 mm 0.00 in0.0 mm 0.01 in0.3 mm
04:05 PM 52.9°F11.6°C 40.3°F4.6°C 62% 1.0 mph NNE1.6 kmh NNE -- 29.25 in990.5 mb 0.00 in0.0 mm 0.00 in0.0 mm 0.01 in0.3 mm
04:10 PM 52.8°F11.6°C 40.3°F4.6°C 62% 4.0 mph E6.4 kmh E -- 29.25 in990.5 mb 0.00 in0.0 mm 0.00 in0.0 mm 0.01 in0.3 mm
04:15 PM 52.7°F11.5°C 40.1°F4.5°C 62% 4.0 mph ENE6.4 kmh ENE -- 29.25 in990.5 mb 0.00 in0.0 mm 0.00 in0.0 mm 0.01 in0.3 mm
04:20 PM 52.6°F11.4°C 39.4°F4.1°C 61% 13.0 mph E20.9 kmh E 14.0 mph22.5 kmh 29.25 in990.5 mb 0.00 in0.0 mm 0.00 in0.0 mm 0.01 in0.3 mm
04:25 PM 52.6°F11.4°C 39.4°F4.1°C 61% 6.0 mph WNW9.7 kmh WNW -- 29.26 in990.9 mb 0.00 in0.0 mm 0.00 in0.0 mm 0.01 in0.3 mm
04:30 PM 52.5°F11.4°C 39.4°F4.1°C 61% 8.0 mph NE12.9 kmh NE -- 29.26 in990.9 mb 0.00 in0.0 mm 0.00 in0.0 mm 0.01 in0.3 mm
04:35 PM 52.4°F11.3°C 39.4°F4.1°C 61% 5.0 mph NE8.0 kmh NE -- 29.26 in990.9 mb 0.00 in0.0 mm 0.00 in0.0 mm 0.01 in0.3 mm
04:40 PM 52.3°F11.3°C 39.7°F4.3°C 62% 11.0 mph NE17.7 kmh NE -- 29.26 in990.9 mb 0.00 in0.0 mm 0.00 in0.0 mm 0.01 in0.3 mm
04:45 PM 52.3°F11.3°C 39.4°F4.1°C 61% 4.0 mph E6.4 kmh E 14.0 mph22.5 kmh 29.26 in990.9 mb 0.00 in0.0 mm 0.00 in0.0 mm 0.01 in0.3 mm
04:50 PM 52.3°F11.3°C 39.4°F4.1°C 61% 10.0 mph ENE16.1 kmh ENE -- 29.26 in990.9 mb 0.00 in0.0 mm 0.00 in0.0 mm 0.01 in0.3 mm
04:55 PM 52.3°F11.3°C 39.4°F4.1°C 61% 5.0 mph ESE8.0 kmh ESE -- 29.26 in990.9 mb 0.00 in0.0 mm 0.00 in0.0 mm 0.01 in0.3 mm
05:00 PM 52.2°F11.2°C 39.6°F4.2°C 62% 8.0 mph N12.9 kmh N -- 29.26 in990.9 mb 0.00 in0.0 mm 0.00 in0.0 mm 0.01 in0.3 mm
05:05 PM 52.2°F11.2°C 39.6°F4.2°C 62% 6.0 mph E9.7 kmh E -- 29.27 in991.2 mb 0.00 in0.0 mm 0.00 in0.0 mm 0.01 in0.3 mm
05:10 PM 52.2°F11.2°C 39.6°F4.2°C 62% 5.0 mph NE8.0 kmh NE 13.0 mph20.9 kmh 29.27 in991.2 mb 0.00 in0.0 mm 0.00 in0.0 mm 0.01 in0.3 mm
05:15 PM 52.2°F11.2°C 39.2°F4.0°C 61% 4.0 mph NE6.4 kmh NE -- 29.27 in991.2 mb 0.00 in0.0 mm 0.00 in0.0 mm 0.01 in0.3 mm
05:20 PM 52.1°F11.2°C 39.2°F4.0°C 61% 6.0 mph E9.7 kmh E -- 29.27 in991.2 mb 0.00 in0.0 mm 0.00 in0.0 mm 0.01 in0.3 mm
05:25 PM 52.2°F11.2°C 39.2°F4.0°C 61% 10.0 mph ENE16.1 kmh ENE -- 29.27 in991.2 mb 0.00 in0.0 mm 0.00 in0.0 mm 0.01 in0.3 mm
05:30 PM 52.2°F11.2°C 39.2°F4.0°C 61% 4.0 mph NNW6.4 kmh NNW -- 29.27 in991.2 mb 0.00 in0.0 mm 0.00 in0.0 mm 0.01 in0.3 mm
05:35 PM 52.0°F11.1°C 39.7°F4.3°C 63% 3.0 mph NE4.8 kmh NE 15.0 mph24.1 kmh 29.27 in991.2 mb 0.00 in0.0 mm 0.00 in0.0 mm 0.01 in0.3 mm
05:40 PM 51.9°F11.1°C 40.1°F4.5°C 64% 5.0 mph NE8.0 kmh NE -- 29.27 in991.2 mb 0.00 in0.0 mm 0.00 in0.0 mm 0.01 in0.3 mm
05:45 PM 51.6°F10.9°C 39.9°F4.4°C 64% 5.0 mph NE8.0 kmh NE -- 29.28 in991.5 mb 0.00 in0.0 mm 0.00 in0.0 mm 0.01 in0.3 mm
05:50 PM 51.4°F10.8°C 40.1°F4.5°C 65% 3.0 mph ENE4.8 kmh ENE -- 29.28 in991.5 mb 0.00 in0.0 mm 0.00 in0.0 mm 0.01 in0.3 mm
05:55 PM 51.1°F10.6°C 39.7°F4.3°C 65% 3.0 mph NE4.8 kmh NE -- 29.28 in991.5 mb 0.00 in0.0 mm 0.00 in0.0 mm 0.01 in0.3 mm
06:00 PM 51.1°F10.6°C 40.1°F4.5°C 66% 3.0 mph N4.8 kmh N 8.0 mph12.9 kmh 29.28 in991.5 mb 0.00 in0.0 mm 0.00 in0.0 mm 0.01 in0.3 mm
06:05 PM 50.8°F10.4°C 40.1°F4.5°C 67% 2.0 mph NE3.2 kmh NE -- 29.28 in991.5 mb 0.00 in0.0 mm 0.00 in0.0 mm 0.01 in0.3 mm
06:10 PM 50.9°F10.5°C 39.9°F4.4°C 66% 1.0 mph NE1.6 kmh NE -- 29.28 in991.5 mb 0.00 in0.0 mm 0.00 in0.0 mm 0.01 in0.3 mm
06:15 PM 50.8°F10.4°C 40.1°F4.5°C 67% 2.0 mph E3.2 kmh E -- 29.28 in991.5 mb 0.00 in0.0 mm 0.00 in0.0 mm 0.01 in0.3 mm
06:20 PM 50.7°F10.4°C 40.1°F4.5°C 67% 1.0 mph N1.6 kmh N -- 29.29 in991.9 mb 0.00 in0.0 mm 0.00 in0.0 mm 0.01 in0.3 mm
06:25 PM 50.5°F10.3°C 40.5°F4.7°C 68% Calm Calm 7.0 mph11.3 kmh 29.29 in991.9 mb 0.00 in0.0 mm 0.00 in0.0 mm 0.01 in0.3 mm
06:30 PM 50.2°F10.1°C 40.5°F4.7°C 69% 3.0 mph NNE4.8 kmh NNE -- 29.29 in991.9 mb 0.00 in0.0 mm 0.00 in0.0 mm 0.01 in0.3 mm
06:35 PM 50.3°F10.2°C 40.6°F4.8°C 69% 2.0 mph NE3.2 kmh NE -- 29.29 in991.9 mb 0.00 in0.0 mm 0.00 in0.0 mm 0.01 in0.3 mm
06:40 PM 50.4°F10.2°C 40.6°F4.8°C 69% Calm Calm -- 29.29 in991.9 mb 0.00 in0.0 mm 0.00 in0.0 mm 0.01 in0.3 mm
06:45 PM 49.9°F9.9°C 40.1°F4.5°C 69% 1.0 mph SSE1.6 kmh SSE -- 29.29 in991.9 mb 0.00 in0.0 mm 0.00 in0.0 mm 0.01 in0.3 mm
06:50 PM 49.4°F9.7°C 40.5°F4.7°C 71% 1.0 mph NE1.6 kmh NE 7.0 mph11.3 kmh 29.29 in991.9 mb 0.00 in0.0 mm 0.00 in0.0 mm 0.01 in0.3 mm
06:55 PM 49.2°F9.6°C 40.3°F4.6°C 71% 3.0 mph WNW4.8 kmh WNW -- 29.30 in992.2 mb 0.00 in0.0 mm 0.00 in0.0 mm 0.01 in0.3 mm
07:00 PM 48.9°F9.4°C 40.3°F4.6°C 72% 1.0 mph WNW1.6 kmh WNW -- 29.30 in992.2 mb 0.00 in0.0 mm 0.00 in0.0 mm 0.01 in0.3 mm
07:05 PM 48.6°F9.2°C 40.3°F4.6°C 73% 4.0 mph WSW6.4 kmh WSW -- 29.30 in992.2 mb 0.00 in0.0 mm 0.00 in0.0 mm 0.01 in0.3 mm
07:10 PM 48.1°F8.9°C 40.1°F4.5°C 74% 3.0 mph SW4.8 kmh SW -- 29.30 in992.2 mb 0.00 in0.0 mm 0.00 in0.0 mm 0.01 in0.3 mm
07:15 PM 47.5°F8.6°C 39.9°F4.4°C 75% Calm Calm 4.0 mph6.4 kmh 29.30 in992.2 mb 0.00 in0.0 mm 0.00 in0.0 mm 0.01 in0.3 mm
07:20 PM 47.6°F8.7°C 40.5°F4.7°C 76% 4.0 mph WSW6.4 kmh WSW -- 29.30 in992.2 mb 0.00 in0.0 mm 0.00 in0.0 mm 0.01 in0.3 mm
07:25 PM 47.8°F8.8°C 40.6°F4.8°C 76% 2.0 mph WSW3.2 kmh WSW -- 29.30 in992.2 mb 0.00 in0.0 mm 0.00 in0.0 mm 0.01 in0.3 mm
07:30 PM 47.6°F8.7°C 40.5°F4.7°C 76% 2.0 mph WSW3.2 kmh WSW -- 29.30 in992.2 mb 0.00 in0.0 mm 0.00 in0.0 mm 0.01 in0.3 mm
07:35 PM 47.8°F8.8°C 40.6°F4.8°C 76% 3.0 mph WSW4.8 kmh WSW -- 29.31 in992.6 mb 0.00 in0.0 mm 0.00 in0.0 mm 0.01 in0.3 mm
07:40 PM 48.1°F8.9°C 40.5°F4.7°C 75% 1.0 mph S1.6 kmh S 5.0 mph8.0 kmh 29.31 in992.6 mb 0.00 in0.0 mm 0.00 in0.0 mm 0.01 in0.3 mm
07:45 PM 48.2°F9.0°C 40.6°F4.8°C 75% 2.0 mph SW3.2 kmh SW -- 29.31 in992.6 mb 0.00 in0.0 mm 0.00 in0.0 mm 0.01 in0.3 mm
07:50 PM 47.3°F8.5°C 40.1°F4.5°C 76% 3.0 mph WSW4.8 kmh WSW -- 29.31 in992.6 mb 0.00 in0.0 mm 0.00 in0.0 mm 0.01 in0.3 mm
07:55 PM 46.9°F8.3°C 39.7°F4.3°C 76% 3.0 mph SW4.8 kmh SW -- 29.31 in992.6 mb 0.00 in0.0 mm 0.00 in0.0 mm 0.01 in0.3 mm
08:00 PM 46.5°F8.1°C 39.7°F4.3°C 77% 4.0 mph SW6.4 kmh SW -- 29.31 in992.6 mb 0.00 in0.0 mm 0.00 in0.0 mm 0.01 in0.3 mm
08:05 PM 46.0°F7.8°C 39.6°F4.2°C 78% 3.0 mph WSW4.8 kmh WSW 6.0 mph9.7 kmh 29.32 in992.9 mb 0.00 in0.0 mm 0.00 in0.0 mm 0.01 in0.3 mm
08:10 PM 45.4°F7.4°C 39.2°F4.0°C 79% 4.0 mph W6.4 kmh W -- 29.32 in992.9 mb 0.00 in0.0 mm 0.00 in0.0 mm 0.01 in0.3 mm
08:15 PM 45.3°F7.4°C 39.2°F4.0°C 79% 4.0 mph WSW6.4 kmh WSW -- 29.32 in992.9 mb 0.00 in0.0 mm 0.00 in0.0 mm 0.01 in0.3 mm
08:20 PM 45.1°F7.3°C 39.4°F4.1°C 80% 5.0 mph WSW8.0 kmh WSW -- 29.32 in992.9 mb 0.00 in0.0 mm 0.00 in0.0 mm 0.01 in0.3 mm
08:25 PM 44.9°F7.2°C 39.2°F4.0°C 80% 3.0 mph SW4.8 kmh SW -- 29.32 in992.9 mb 0.00 in0.0 mm 0.00 in0.0 mm 0.01 in0.3 mm
08:30 PM 44.7°F7.1°C 39.4°F4.1°C 81% 5.0 mph SW8.0 kmh SW 6.0 mph9.7 kmh 29.32 in992.9 mb 0.00 in0.0 mm 0.00 in0.0 mm 0.01 in0.3 mm
08:35 PM 45.2°F7.3°C 39.7°F4.3°C 81% 6.0 mph WSW9.7 kmh WSW -- 29.32 in992.9 mb 0.00 in0.0 mm 0.00 in0.0 mm 0.01 in0.3 mm
08:40 PM 46.1°F7.8°C 39.6°F4.2°C 78% 5.0 mph WSW8.0 kmh WSW -- 29.32 in992.9 mb 0.00 in0.0 mm 0.00 in0.0 mm 0.01 in0.3 mm
08:45 PM 46.6°F8.1°C 39.7°F4.3°C 77% 4.0 mph WSW6.4 kmh WSW -- 29.32 in992.9 mb 0.00 in0.0 mm 0.00 in0.0 mm 0.01 in0.3 mm
08:50 PM 45.4°F7.4°C 38.8°F3.8°C 78% 4.0 mph SW6.4 kmh SW -- 29.33 in993.2 mb 0.00 in0.0 mm 0.00 in0.0 mm 0.01 in0.3 mm
08:55 PM 44.8°F7.1°C 39.0°F3.9°C 80% 4.0 mph SW6.4 kmh SW 5.0 mph8.0 kmh 29.33 in993.2 mb 0.00 in0.0 mm 0.00 in0.0 mm 0.01 in0.3 mm
09:00 PM 45.1°F7.3°C 39.4°F4.1°C 80% 4.0 mph WSW6.4 kmh WSW -- 29.33 in993.2 mb 0.00 in0.0 mm 0.00 in0.0 mm 0.01 in0.3 mm
09:05 PM 44.9°F7.2°C 38.8°F3.8°C 79% 5.0 mph WSW8.0 kmh WSW -- 29.33 in993.2 mb 0.00 in0.0 mm 0.00 in0.0 mm 0.01 in0.3 mm
09:10 PM 44.3°F6.8°C 38.5°F3.6°C 80% 4.0 mph SW6.4 kmh SW -- 29.33 in993.2 mb 0.00 in0.0 mm 0.00 in0.0 mm 0.01 in0.3 mm
09:15 PM 44.0°F6.7°C 38.7°F3.7°C 81% 5.0 mph WSW8.0 kmh WSW -- 29.34 in993.6 mb 0.00 in0.0 mm 0.00 in0.0 mm 0.01 in0.3 mm
09:20 PM 43.7°F6.5°C 38.7°F3.7°C 82% 6.0 mph WSW9.7 kmh WSW 6.0 mph9.7 kmh 29.34 in993.6 mb 0.00 in0.0 mm 0.00 in0.0 mm 0.01 in0.3 mm
09:25 PM 43.4°F6.3°C 38.5°F3.6°C 83% 5.0 mph WSW8.0 kmh WSW -- 29.34 in993.6 mb 0.00 in0.0 mm 0.00 in0.0 mm 0.01 in0.3 mm
09:30 PM 43.1°F6.2°C 38.7°F3.7°C 84% 6.0 mph WSW9.7 kmh WSW -- 29.34 in993.6 mb 0.00 in0.0 mm 0.00 in0.0 mm 0.01 in0.3 mm
09:35 PM 43.3°F6.3°C 38.8°F3.8°C 84% 5.0 mph SW8.0 kmh SW -- 29.34 in993.6 mb 0.00 in0.0 mm 0.00 in0.0 mm 0.01 in0.3 mm
09:40 PM 43.4°F6.3°C 38.8°F3.8°C 84% 5.0 mph WSW8.0 kmh WSW -- 29.34 in993.6 mb 0.00 in0.0 mm 0.00 in0.0 mm 0.01 in0.3 mm
09:45 PM 43.8°F6.6°C 39.4°F4.1°C 84% 5.0 mph SW8.0 kmh SW 7.0 mph11.3 kmh 29.34 in993.6 mb 0.00 in0.0 mm 0.00 in0.0 mm 0.01 in0.3 mm
09:50 PM 43.2°F6.2°C 38.3°F3.5°C 83% 6.0 mph WSW9.7 kmh WSW -- 29.34 in993.6 mb 0.00 in0.0 mm 0.00 in0.0 mm 0.01 in0.3 mm
09:55 PM 43.0°F6.1°C 38.5°F3.6°C 84% 5.0 mph WSW8.0 kmh WSW -- 29.34 in993.6 mb 0.00 in0.0 mm 0.00 in0.0 mm 0.01 in0.3 mm
10:00 PM 43.0°F6.1°C 38.8°F3.8°C 85% 4.0 mph WSW6.4 kmh WSW -- 29.34 in993.6 mb 0.00 in0.0 mm 0.00 in0.0 mm 0.01 in0.3 mm
10:05 PM 43.3°F6.3°C 39.2°F4.0°C 85% 5.0 mph WSW8.0 kmh WSW -- 29.34 in993.6 mb 0.00 in0.0 mm 0.00 in0.0 mm 0.01 in0.3 mm
10:10 PM 43.3°F6.3°C 38.8°F3.8°C 84% 4.0 mph SW6.4 kmh SW 6.0 mph9.7 kmh 29.34 in993.6 mb 0.00 in0.0 mm 0.00 in0.0 mm 0.01 in0.3 mm
10:15 PM 43.4°F6.3°C 39.2°F4.0°C 85% 4.0 mph WSW6.4 kmh WSW -- 29.35 in993.9 mb 0.00 in0.0 mm 0.00 in0.0 mm 0.01 in0.3 mm
10:20 PM 43.4°F6.3°C 38.8°F3.8°C 84% 5.0 mph SW8.0 kmh SW -- 29.35 in993.9 mb 0.00 in0.0 mm 0.00 in0.0 mm 0.01 in0.3 mm
10:25 PM 43.4°F6.3°C 39.2°F4.0°C 85% 4.0 mph SW6.4 kmh SW -- 29.35 in993.9 mb 0.00 in0.0 mm 0.00 in0.0 mm 0.01 in0.3 mm
10:30 PM 43.5°F6.4°C 39.4°F4.1°C 85% 4.0 mph SW6.4 kmh SW -- 29.35 in993.9 mb 0.00 in0.0 mm 0.00 in0.0 mm 0.01 in0.3 mm
10:35 PM 44.0°F6.7°C 40.1°F4.5°C 86% 4.0 mph SW6.4 kmh SW 5.0 mph8.0 kmh 29.36 in994.2 mb 0.00 in0.0 mm 0.00 in0.0 mm 0.01 in0.3 mm
10:40 PM 45.3°F7.4°C 40.5°F4.7°C 83% 1.0 mph SW1.6 kmh SW -- 29.35 in993.9 mb 0.00 in0.0 mm 0.00 in0.0 mm 0.01 in0.3 mm
10:45 PM 45.2°F7.3°C 39.9°F4.4°C 82% 4.0 mph SW6.4 kmh SW -- 29.36 in994.2 mb 0.00 in0.0 mm 0.00 in0.0 mm 0.01 in0.3 mm
10:50 PM 45.1°F7.3°C 40.3°F4.6°C 83% 4.0 mph SW6.4 kmh SW -- 29.36 in994.2 mb 0.00 in0.0 mm 0.00 in0.0 mm 0.01 in0.3 mm
10:55 PM 44.7°F7.1°C 39.9°F4.4°C 83% 4.0 mph WSW6.4 kmh WSW -- 29.36 in994.2 mb 0.00 in0.0 mm 0.00 in0.0 mm 0.01 in0.3 mm
11:00 PM 44.9°F7.2°C 40.5°F4.7°C 84% 3.0 mph WSW4.8 kmh WSW 6.0 mph9.7 kmh 29.36 in994.2 mb 0.00 in0.0 mm 0.00 in0.0 mm 0.01 in0.3 mm
11:05 PM 45.0°F7.2°C 40.5°F4.7°C 84% 5.0 mph WSW8.0 kmh WSW -- 29.36 in994.2 mb 0.00 in0.0 mm 0.00 in0.0 mm 0.01 in0.3 mm
11:10 PM 45.9°F7.7°C 40.6°F4.8°C 82% 4.0 mph WSW6.4 kmh WSW -- 29.36 in994.2 mb 0.00 in0.0 mm 0.00 in0.0 mm 0.01 in0.3 mm
11:15 PM 47.3°F8.5°C 41.4°F5.2°C 80% 4.0 mph WSW6.4 kmh WSW -- 29.36 in994.2 mb 0.00 in0.0 mm 0.00 in0.0 mm 0.01 in0.3 mm
11:20 PM 47.5°F8.6°C 40.6°F4.8°C 77% Calm Calm -- 29.36 in994.2 mb 0.00 in0.0 mm 0.00 in0.0 mm 0.01 in0.3 mm
11:25 PM 46.6°F8.1°C 40.5°F4.7°C 79% 4.0 mph SW6.4 kmh SW 4.0 mph6.4 kmh 29.37 in994.6 mb 0.00 in0.0 mm 0.00 in0.0 mm 0.01 in0.3 mm
11:30 PM 46.9°F8.3°C 41.2°F5.1°C 80% 4.0 mph WSW6.4 kmh WSW -- 29.37 in994.6 mb 0.00 in0.0 mm 0.00 in0.0 mm 0.01 in0.3 mm
11:35 PM 47.5°F8.6°C 41.0°F5.0°C 78% 3.0 mph WSW4.8 kmh WSW -- 29.37 in994.6 mb 0.00 in0.0 mm 0.00 in0.0 mm 0.01 in0.3 mm
11:40 PM 48.1°F8.9°C 40.8°F4.9°C 76% 1.0 mph SW1.6 kmh SW -- 29.37 in994.6 mb 0.00 in0.0 mm 0.00 in0.0 mm 0.01 in0.3 mm
11:45 PM 48.7°F9.3°C 40.8°F4.9°C 74% 6.0 mph SW9.7 kmh SW -- 29.37 in994.6 mb 0.00 in0.0 mm 0.00 in0.0 mm 0.01 in0.3 mm
11:50 PM 49.1°F9.5°C 40.8°F4.9°C 73% 4.0 mph SW6.4 kmh SW 8.0 mph12.9 kmh 29.37 in994.6 mb 0.00 in0.0 mm 0.00 in0.0 mm 0.01 in0.3 mm
11:55 PM 49.2°F9.6°C 40.6°F4.8°C 72% 4.0 mph WSW6.4 kmh WSW -- 29.37 in994.6 mb 0.00 in0.0 mm 0.00 in0.0 mm 0.01 in0.3 mm